Arlington, CO

11:34 AM MDT on October 25, 2014 (GMT -0600)
NE Crowley County | Change Station
CLOSE
Current Station
Personal Weather Station
Location: Sugar City, CO
Elevation: 4590 ft
Nearby Weather Stations

Elev 4590 ft 38.45 °N, 103.52 °W | Updated 21 seconds ago

Clear
Clear
85.1 °F
Feels Like 82 °F
N
0.0
Wind Variable Wind from NE
Gusts 3.0 mph

Today
High -- | Low -- °F
--% Chance of Precip.
Yesterday
High -- | Low -- °F
Precip. -- in
7:12 AM 6:01 PM
Waxing Crescent, 4% visible
Pressure 30.05 in
Visibility 10.0 miles
Clouds Clear
Heat Index 82 °F
Dew Point 27 °F
Humidity 12%
Rainfall 0.00 in
Snow Depth Not available.
UV 4 out of 12
Pollen 2.50 out of 12
Air Quality Not available.
Flu Activity Sporadic
METAR KLHX 251653Z AUTO 26007KT 10SM CLR 22/00 A3017 RMK AO2 SLP175 T02220000

More Conditions Fewer Conditions

Pressure 30.05 in
Visibility 10.0 miles
Clouds Clear
Heat Index 82 °F
Dew Point 27 °F
Humidity 12%
Rainfall 0.00 in
Snow Depth Not available.
UV 4 out of 12
Pollen 2.50 out of 12
Air Quality Not available.
Flu Activity Sporadic
METAR KLHX 251653Z AUTO 26007KT 10SM CLR 22/00 A3017 RMK AO2 SLP175 T02220000

More Conditions Fewer Conditions

10-Day Weather Forecast

Almanac

Astronomy

Oct. 25, 2014 Rise Set
Actual Time 7:12 AM MDT 6:01 PM MDT
Civil Twilight 6:45 AM MDT 6:29 PM MDT
Nautical Twilight 6:14 AM MDT 6:59 PM MDT
Astronomical Twilight 5:43 AM MDT 7:30 PM MDT
Moon 8:52 AM MDT 7:27 PM MDT
Length of Visible Light 11h 43m
Length of Day
10h 49m
Tomorrow will be 2m 17s shorter.
Waxing Crescent, 4% of the Moon is Illuminated
Today
Waxing Crescent
Oct 30
First Quarter
Nov 6
Full
Nov 14
Last Quarter
Nov 22
New

Today's Extremes

State Highs State Lows

Community

WunderPhotos

Upload Photos

1,764,919 photos uploaded!

Nearby

Snow Depth

Station Depth Elevation
Echo Lake 0 in 10600 ft
Rough And Tumble 0 in 10360 ft
Jackwhacker Gulch 0 in 10960 ft
Michigan Creek 0 in 10600 ft
Grizzly Peak 0 in 11100 ft

Earthquake Activity

City Distance Mag. Time & Date
No recent earthquake activity has been reported nearby.
Minimum magnitude displayed is 2.5.

Coastal Water Temperatures

Place Temperature
No Stations Reporting

Nearby Weather Stations